Time;durP1;ratioP1;P1;durP2;ratioP2;P2;SDS_P1;SDS_P2;PMS_P1;PMS_P2;Temp;Humidity;BMP_temperature;BMP_pressure;BME280_temperature;BME280_humidity;BME280_pressure;Samples;Min_cycle;Max_cycle;Signal;HPM_P1;HPM_P2
2022/06/14 00:00:54;;;;;;;6.75;4.60;;;;;;;;;;5071672;28;20028;-58
2022/06/14 00:03:41;;;;;;;11.98;4.80;;;;;;;;;;5070948;28;20111;-57
2022/06/14 00:06:15;;;;;;;9.40;4.20;;;;;;;;;;5064496;28;20028;-57
2022/06/14 00:08:42;;;;;;;8.70;4.13;;;;;;;;;;5069962;28;20032;-57
2022/06/14 00:11:11;;;;;;;10.38;4.78;;;;;;;;;;5068170;28;20047;-58
2022/06/14 00:13:37;;;;;;;9.00;4.40;;;;;;;;;;5066680;28;20027;-57
2022/06/14 00:16:03;;;;;;;6.65;4.35;;;;;;;;;;5069188;28;20031;-58
2022/06/14 00:18:28;;;;;;;7.90;4.70;;;;;;;;;;5069210;28;20364;-58
2022/06/14 00:20:54;;;;;;;10.05;4.45;;;;;;;;;;5067180;28;20020;-57
2022/06/14 00:23:22;;;;;;;8.07;4.80;;;;;;;;;;5064895;28;20103;-58
2022/06/14 00:25:51;;;;;;;8.48;4.40;;;;;;;;;;5067606;28;20107;-57
2022/06/14 00:28:17;;;;;;;14.43;4.97;;;;;;;;;;5068172;28;20413;-57
2022/06/14 00:30:47;;;;;;;11.13;5.80;;;;;;;;;;5068485;28;20030;-58
2022/06/14 00:33:12;;;;;;;;;;;;;;;;;;5063760;28;20399;-57
2022/06/14 00:35:38;;;;;;;10.27;4.32;;;;;;;;;;5063872;28;19909;-58
2022/06/14 00:38:04;;;;;;;9.20;4.55;;;;;;;;;;5072769;28;20025;-58
2022/06/14 00:40:33;;;;;;;7.78;5.22;;;;;;;;;;5064891;28;20024;-58
2022/06/14 00:43:03;;;;;;;7.45;4.72;;;;;;;;;;5060859;28;20033;-58
2022/06/14 00:45:29;;;;;;;9.40;4.35;;;;;;;;;;5069359;28;20606;-58
2022/06/14 00:48:05;;;;;;;8.88;4.88;;;;;;;;;;5072680;28;20116;-59
2022/06/14 00:50:40;;;;;;;9.05;5.07;;;;;;;;;;5071634;28;20574;-58
2022/06/14 00:53:20;;;;;;;8.15;4.35;;;;;;;;;;5071581;28;20031;-59
2022/06/14 00:55:55;;;;;;;8.52;5.05;;;;;;;;;;5070884;28;20020;-58
2022/06/14 00:58:28;;;;;;;10.60;5.03;;;;;;;;;;5070502;28;20046;-59
2022/06/14 01:01:00;;;;;;;10.80;4.85;;;;;;;;;;5062111;28;20074;-58
2022/06/14 01:03:32;;;;;;;9.65;4.93;;;;;;;;;;5069453;28;20033;-59
2022/06/14 01:06:20;;;;;;;6.60;4.18;;;;;;;;;;5069482;28;20039;-59
2022/06/14 01:08:46;;;;;;;8.85;4.90;;;;;;;;;;5068094;28;20023;-58
2022/06/14 01:11:15;;;;;;;8.82;5.22;;;;;;;;;;5068400;28;20115;-58
2022/06/14 01:13:41;;;;;;;10.68;5.25;;;;;;;;;;5068579;28;20024;-57
2022/06/14 01:16:09;;;;;;;11.88;5.55;;;;;;;;;;5066901;28;20024;-58
2022/06/14 01:18:36;;;;;;;9.80;5.10;;;;;;;;;;5067249;28;20051;-58
2022/06/14 01:21:01;;;;;;;11.88;5.00;;;;;;;;;;5068252;28;20108;-58
2022/06/14 01:23:26;;;;;;;9.98;4.88;;;;;;;;;;5065236;28;20446;-58
2022/06/14 01:26:04;;;;;;;11.65;5.40;;;;;;;;;;5066037;28;20024;-58
2022/06/14 01:28:30;;;;;;;11.02;5.25;;;;;;;;;;5063609;28;20025;-58
2022/06/14 01:30:56;;;;;;;8.43;5.35;;;;;;;;;;5065182;28;20020;-58
2022/06/14 01:33:32;;;;;;;9.15;5.40;;;;;;;;;;5065446;28;20021;-61
2022/06/14 01:36:05;;;;;;;10.77;4.97;;;;;;;;;;5060927;28;20024;-58
2022/06/14 01:38:31;;;;;;;9.55;5.20;;;;;;;;;;5061475;28;20111;-58
2022/06/14 01:41:09;;;;;;;9.93;5.28;;;;;;;;;;5063086;28;20539;-58
2022/06/14 01:43:35;;;;;;;8.30;5.50;;;;;;;;;;5064589;28;20244;-58
2022/06/14 01:46:24;;;;;;;8.98;5.43;;;;;;;;;;5071238;28;20310;-58
2022/06/14 01:52:03;;;;;;;8.73;5.32;;;;;;;;;;5063949;28;20062;-58
2022/06/14 01:54:31;;;;;;;8.68;4.75;;;;;;;;;;5071935;28;20094;-59
2022/06/14 01:57:15;;;;;;;7.72;5.25;;;;;;;;;;5072501;28;20404;-60
2022/06/14 01:59:47;;;;;;;12.88;5.28;;;;;;;;;;5072037;28;20103;-58
2022/06/14 02:02:31;;;;;;;9.40;5.28;;;;;;;;;;5072172;28;20024;-58
2022/06/14 02:05:24;;;;;;;9.60;5.55;;;;;;;;;;5069134;28;20115;-58
2022/06/14 02:08:00;;;;;;;12.95;6.38;;;;;;;;;;5065917;28;20382;-58
2022/06/14 02:10:41;;;;;;;8.52;5.15;;;;;;;;;;5071665;28;20029;-58
2022/06/14 02:13:17;;;;;;;10.15;5.40;;;;;;;;;;5075223;28;20028;-58
2022/06/14 02:15:55;;;;;;;11.23;5.38;;;;;;;;;;5073253;28;20398;-58
2022/06/14 02:18:44;;;;;;;13.25;5.68;;;;;;;;;;5069766;28;20116;-58
2022/06/14 02:21:23;;;;;;;10.60;5.45;;;;;;;;;;5064174;28;20574;-57
2022/06/14 02:24:00;;;;;;;12.25;6.10;;;;;;;;;;5072441;28;20119;-57
2022/06/14 02:26:45;;;;;;;9.88;5.85;;;;;;;;;;5067628;28;20029;-57
2022/06/14 02:29:27;;;;;;;9.98;5.60;;;;;;;;;;5065308;28;20024;-57
2022/06/14 02:31:53;;;;;;;8.32;5.72;;;;;;;;;;5067993;28;20027;-58
2022/06/14 02:34:33;;;;;;;9.95;6.22;;;;;;;;;;5068907;28;20332;-58
2022/06/14 02:37:04;;;;;;;9.60;5.68;;;;;;;;;;5056901;28;20017;-57
2022/06/14 02:39:34;;;;;;;10.30;6.07;;;;;;;;;;5064441;28;20506;-59
2022/06/14 02:42:07;;;;;;;11.05;5.93;;;;;;;;;;5060410;28;20110;-58
2022/06/14 02:45:00;;;;;;;10.32;5.40;;;;;;;;;;5065891;28;20086;-58
2022/06/14 02:47:31;;;;;;;12.75;6.28;;;;;;;;;;5065657;28;20020;-57
2022/06/14 02:50:35;;;;;;;14.10;6.50;;;;;;;;;;5068515;28;20695;-59
2022/06/14 02:53:25;;;;;;;11.50;6.38;;;;;;;;;;5049213;28;20033;-59
2022/06/14 02:56:08;;;;;;;8.68;6.28;;;;;;;;;;5066597;28;20051;-59
2022/06/14 02:58:50;;;;;;;10.73;6.15;;;;;;;;;;5068688;28;20020;-60
2022/06/14 03:01:22;;;;;;;9.82;6.30;;;;;;;;;;5068625;28;20108;-59
2022/06/14 03:04:01;;;;;;;11.70;6.40;;;;;;;;;;5070751;28;20020;-57
2022/06/14 03:06:32;;;;;;;8.73;6.20;;;;;;;;;;5067973;28;20036;-58
2022/06/14 03:09:31;;;;;;;14.23;6.75;;;;;;;;;;5071842;28;20036;-57
2022/06/14 03:12:20;;;;;;;13.18;6.75;;;;;;;;;;5056161;28;20381;-58
2022/06/14 03:14:58;;;;;;;11.23;7.32;;;;;;;;;;5071593;28;20496;-58
2022/06/14 03:17:39;;;;;;;13.43;6.97;;;;;;;;;;5067963;28;20028;-59
2022/06/14 03:20:07;;;;;;;13.00;6.35;;;;;;;;;;5073815;28;20479;-58
2022/06/14 03:23:10;;;;;;;14.50;7.00;;;;;;;;;;5073238;28;20028;-59
2022/06/14 03:25:45;;;;;;;14.38;7.20;;;;;;;;;;5068032;28;20037;-58
2022/06/14 03:28:28;;;;;;;13.98;6.65;;;;;;;;;;5074815;28;20066;-58
2022/06/14 03:31:16;;;;;;;14.95;7.53;;;;;;;;;;5066800;28;20522;-59
2022/06/14 03:34:00;;;;;;;15.20;7.70;;;;;;;;;;5071875;28;20033;-58
2022/06/14 03:36:26;;;;;;;11.50;7.00;;;;;;;;;;5066120;28;20021;-59
2022/06/14 03:39:20;;;;;;;13.27;6.90;;;;;;;;;;5060919;28;20073;-60
2022/06/14 03:41:48;;;;;;;11.57;7.50;;;;;;;;;;5061326;28;20044;-58
2022/06/14 03:44:16;;;;;;;15.77;7.63;;;;;;;;;;5063518;28;20024;-59
2022/06/14 03:47:10;;;;;;;16.52;7.75;;;;;;;;;;5061826;28;20031;-59
2022/06/14 03:49:44;;;;;;;14.88;7.78;;;;;;;;;;5070376;28;20025;-58
2022/06/14 03:52:44;;;;;;;15.98;8.15;;;;;;;;;;5069792;28;20484;-58
2022/06/14 03:55:27;;;;;;;17.15;9.20;;;;;;;;;;5068381;28;20032;-58
2022/06/14 03:58:18;;;;;;;12.40;7.65;;;;;;;;;;5071070;28;20123;-58
2022/06/14 04:00:53;;;;;;;13.00;7.40;;;;;;;;;;5068951;28;20083;-57
2022/06/14 04:04:06;;;;;;;13.90;7.97;;;;;;;;;;5073971;28;20020;-57
2022/06/14 04:07:22;;;;;;;15.95;8.43;;;;;;;;;;5066234;28;20040;-58
2022/06/14 04:09:54;;;;;;;16.40;8.35;;;;;;;;;;5065558;28;20406;-58
2022/06/14 04:12:19;;;;;;;13.10;8.20;;;;;;;;;;5067152;28;20036;-57
2022/06/14 04:15:07;;;;;;;17.30;9.38;;;;;;;;;;5069542;28;20032;-57
2022/06/14 04:18:34;;;;;;;14.90;8.10;;;;;;;;;;5070654;28;20019;-57
2022/06/14 04:20:55;;;;;;;14.07;7.63;;;;;;;;;;5069071;28;20417;-57
2022/06/14 04:23:20;;;;;;;14.25;7.38;;;;;;;;;;5074350;28;20055;-58
2022/06/14 04:26:07;;;;;;;16.52;8.20;;;;;;;;;;5070724;28;20452;-57
2022/06/14 04:28:49;;;;;;;16.08;8.68;;;;;;;;;;5068690;28;20017;-58
2022/06/14 04:31:23;;;;;;;12.02;8.30;;;;;;;;;;5073391;28;20032;-58
2022/06/14 04:34:22;;;;;;;16.40;7.88;;;;;;;;;;5061001;28;20021;-58
2022/06/14 04:36:57;;;;;;;13.98;7.53;;;;;;;;;;5063105;28;20111;-58
2022/06/14 04:39:37;;;;;;;11.43;7.60;;;;;;;;;;5067742;28;20032;-57
2022/06/14 04:42:15;;;;;;;;;;;;;;;;;;5064041;28;20214;-59
2022/06/14 04:44:47;;;;;;;13.27;7.80;;;;;;;;;;5065909;28;19912;-58
2022/06/14 04:47:31;;;;;;;14.07;7.85;;;;;;;;;;5066619;28;20107;-58
2022/06/14 04:49:59;;;;;;;12.07;7.80;;;;;;;;;;5068881;28;20032;-57
2022/06/14 04:52:37;;;;;;;14.68;8.02;;;;;;;;;;5075917;28;20032;-57
2022/06/14 04:55:26;;;;;;;15.63;8.05;;;;;;;;;;5073894;28;20028;-58
2022/06/14 04:58:01;;;;;;;13.73;8.48;;;;;;;;;;5065861;28;20032;-57
2022/06/14 05:00:51;;;;;;;12.88;7.63;;;;;;;;;;5070696;28;20093;-58
2022/06/14 05:03:26;;;;;;;15.25;7.82;;;;;;;;;;5072606;28;20471;-57
2022/06/14 05:06:00;;;;;;;13.18;7.65;;;;;;;;;;5069361;28;20032;-57
2022/06/14 05:08:38;;;;;;;15.75;7.78;;;;;;;;;;5077222;28;20024;-57
2022/06/14 05:11:10;;;;;;;14.30;8.85;;;;;;;;;;5072486;28;20104;-58
2022/06/14 05:13:41;;;;;;;15.45;7.85;;;;;;;;;;5071932;28;20110;-57
2022/06/14 05:16:23;;;;;;;18.15;8.30;;;;;;;;;;5076538;28;20012;-58
2022/06/14 05:19:01;;;;;;;15.50;9.05;;;;;;;;;;5067371;28;20125;-58
2022/06/14 05:21:47;;;;;;;16.27;7.45;;;;;;;;;;5068731;28;20035;-58
2022/06/14 05:24:13;;;;;;;14.50;8.15;;;;;;;;;;5066438;28;20065;-58
2022/06/14 05:27:14;;;;;;;13.73;7.82;;;;;;;;;;5074763;28;20036;-59
2022/06/14 05:30:04;;;;;;;15.05;8.40;;;;;;;;;;5072752;28;20094;-59
2022/06/14 05:32:39;;;;;;;19.55;9.43;;;;;;;;;;5075532;28;20459;-59
2022/06/14 05:36:04;;;;;;;13.10;7.85;;;;;;;;;;5062121;28;20021;-59
2022/06/14 05:38:59;;;;;;;13.68;7.35;;;;;;;;;;5040078;28;20032;-60
2022/06/14 05:41:30;;;;;;;12.32;7.45;;;;;;;;;;5041106;28;20146;-60
2022/06/14 05:44:01;;;;;;;17.33;8.05;;;;;;;;;;5051716;28;20169;-59
2022/06/14 05:46:31;;;;;;;15.50;8.23;;;;;;;;;;5066366;28;20107;-59
2022/06/14 05:49:05;;;;;;;14.55;9.60;;;;;;;;;;5072449;28;20021;-60
2022/06/14 05:51:54;;;;;;;12.48;7.82;;;;;;;;;;5074044;28;20032;-59
2022/06/14 05:54:37;;;;;;;14.52;7.72;;;;;;;;;;5070337;28;20117;-59
2022/06/14 05:57:17;;;;;;;11.85;7.65;;;;;;;;;;5069797;28;20373;-59
2022/06/14 05:59:53;;;;;;;12.85;7.57;;;;;;;;;;5074138;28;20031;-59
2022/06/14 06:02:49;;;;;;;14.50;7.70;;;;;;;;;;5070577;28;20124;-60
2022/06/14 06:05:15;;;;;;;14.07;7.43;;;;;;;;;;5074559;28;20035;-58
2022/06/14 06:07:48;;;;;;;17.88;8.27;;;;;;;;;;5073976;28;20024;-60
2022/06/14 06:10:35;;;;;;;22.02;10.75;;;;;;;;;;5070717;28;20057;-60
2022/06/14 06:13:19;;;;;;;20.02;9.60;;;;;;;;;;5072905;28;20398;-59
2022/06/14 06:15:55;;;;;;;17.45;9.20;;;;;;;;;;5072940;28;20024;-59
2022/06/14 06:18:32;;;;;;;13.45;8.60;;;;;;;;;;5068280;28;20048;-59
2022/06/14 06:21:02;;;;;;;17.73;8.52;;;;;;;;;;5072100;28;20043;-59
2022/06/14 06:23:37;;;;;;;12.93;7.82;;;;;;;;;;5075136;28;20102;-58
2022/06/14 06:26:04;;;;;;;12.77;7.55;;;;;;;;;;5069030;28;20086;-58
2022/06/14 06:28:35;;;;;;;14.15;7.38;;;;;;;;;;5069579;28;20025;-59
2022/06/14 06:31:18;;;;;;;16.83;7.88;;;;;;;;;;5075088;28;20031;-60
2022/06/14 06:33:48;;;;;;;13.57;7.38;;;;;;;;;;5063509;28;20035;-59
2022/06/14 06:36:26;;;;;;;;;;;;;;;;;;5060249;28;20028;-59
2022/06/14 06:39:40;;;;;;;15.20;7.82;;;;;;;;;;5056916;28;19999;-59
2022/06/14 06:42:26;;;;;;;13.63;7.10;;;;;;;;;;5041094;28;20464;-59
2022/06/14 06:45:04;;;;;;;14.20;7.30;;;;;;;;;;5056027;28;20028;-59
2022/06/14 06:47:57;;;;;;;17.75;8.20;;;;;;;;;;5071154;28;20551;-58
2022/06/14 06:50:23;;;;;;;15.10;7.22;;;;;;;;;;5071338;28;20210;-57
2022/06/14 06:53:07;;;;;;;12.10;7.57;;;;;;;;;;5070877;28;20028;-59
2022/06/14 06:55:45;;;;;;;14.93;7.07;;;;;;;;;;5071484;28;20029;-59
2022/06/14 06:58:26;;;;;;;12.02;6.97;;;;;;;;;;5073372;28;20024;-59
2022/06/14 07:00:55;;;;;;;15.40;7.43;;;;;;;;;;5064227;28;20028;-58
2022/06/14 07:03:45;;;;;;;12.98;7.35;;;;;;;;;;5069594;28;20036;-58
2022/06/14 07:06:31;;;;;;;16.08;7.78;;;;;;;;;;5072954;28;20122;-59
2022/06/14 07:09:00;;;;;;;11.77;7.15;;;;;;;;;;5072717;28;20016;-59
2022/06/14 07:11:33;;;;;;;13.13;7.85;;;;;;;;;;5068899;28;20090;-58
2022/06/14 07:14:16;;;;;;;12.43;7.30;;;;;;;;;;5073684;28;20032;-58
2022/06/14 07:16:50;;;;;;;15.85;7.68;;;;;;;;;;5072802;28;20028;-58
2022/06/14 07:19:27;;;;;;;15.48;7.53;;;;;;;;;;5068254;28;20063;-59
2022/06/14 07:22:25;;;;;;;15.60;7.32;;;;;;;;;;5071836;28;20038;-59
2022/06/14 07:24:50;;;;;;;14.27;7.60;;;;;;;;;;5067688;28;20028;-59
2022/06/14 07:27:21;;;;;;;10.70;7.35;;;;;;;;;;5067640;28;20079;-58
2022/06/14 07:29:51;;;;;;;14.55;7.22;;;;;;;;;;5070779;28;20528;-59
2022/06/14 07:32:25;;;;;;;14.60;7.13;;;;;;;;;;5062265;28;20111;-59
2022/06/14 07:34:52;;;;;;;14.32;7.13;;;;;;;;;;5060894;28;20345;-59
2022/06/14 07:37:45;;;;;;;15.65;7.47;;;;;;;;;;5059842;28;20469;-59
2022/06/14 07:40:20;;;;;;;12.13;7.28;;;;;;;;;;5064420;28;20025;-58
2022/06/14 07:42:58;;;;;;;15.55;7.97;;;;;;;;;;5061087;28;20033;-59
2022/06/14 07:45:28;;;;;;;14.30;7.32;;;;;;;;;;5070701;28;20507;-59
2022/06/14 07:47:53;;;;;;;12.90;7.20;;;;;;;;;;5063833;28;20067;-58
2022/06/14 07:50:22;;;;;;;13.10;6.95;;;;;;;;;;5071197;28;20064;-58
2022/06/14 07:53:12;;;;;;;13.93;7.40;;;;;;;;;;5069915;28;20024;-60
2022/06/14 07:55:53;;;;;;;16.30;7.13;;;;;;;;;;5069073;28;20375;-59
2022/06/14 07:58:24;;;;;;;17.52;7.93;;;;;;;;;;5068824;28;20040;-58
2022/06/14 08:01:08;;;;;;;13.80;7.78;;;;;;;;;;5068053;28;20043;-58
2022/06/14 08:03:48;;;;;;;13.40;7.10;;;;;;;;;;5066569;28;20309;-58
2022/06/14 08:06:18;;;;;;;13.88;8.02;;;;;;;;;;5068786;28;20032;-59
2022/06/14 08:08:46;;;;;;;10.65;7.00;;;;;;;;;;5069958;28;20020;-58
2022/06/14 08:11:25;;;;;;;19.55;7.80;;;;;;;;;;5069337;28;20028;-59
2022/06/14 08:13:58;;;;;;;12.95;7.25;;;;;;;;;;5070458;28;20494;-58
2022/06/14 08:16:25;;;;;;;14.43;7.18;;;;;;;;;;5071197;28;20037;-59
2022/06/14 08:19:03;;;;;;;13.45;7.28;;;;;;;;;;5075501;28;20032;-58
2022/06/14 08:21:45;;;;;;;16.05;7.10;;;;;;;;;;5076556;28;20360;-59
2022/06/14 08:24:20;;;;;;;13.73;6.95;;;;;;;;;;5070732;28;20036;-59
2022/06/14 08:26:55;;;;;;;18.42;7.40;;;;;;;;;;5076375;28;20135;-59
2022/06/14 08:29:38;;;;;;;15.73;7.05;;;;;;;;;;5078310;28;20483;-58
2022/06/14 08:32:33;;;;;;;13.30;6.75;;;;;;;;;;5061984;28;20029;-59
2022/06/14 08:35:01;;;;;;;13.68;7.20;;;;;;;;;;5049952;28;20056;-59
2022/06/14 08:37:57;;;;;;;13.23;7.32;;;;;;;;;;5067401;28;20092;-60
2022/06/14 08:40:28;;;;;;;16.02;7.40;;;;;;;;;;5066622;28;20388;-59
2022/06/14 08:43:00;;;;;;;13.63;6.93;;;;;;;;;;5067116;28;20025;-59
2022/06/14 08:45:36;;;;;;;13.20;7.13;;;;;;;;;;5073196;28;20024;-59
2022/06/14 08:48:32;;;;;;;15.95;6.50;;;;;;;;;;5073651;28;20496;-59
2022/06/14 08:51:10;;;;;;;11.60;6.75;;;;;;;;;;5072797;28;20460;-60
2022/06/14 08:53:50;;;;;;;10.98;6.63;;;;;;;;;;5070142;28;20036;-59
2022/06/14 08:56:37;;;;;;;13.43;6.85;;;;;;;;;;5076416;28;20027;-59
2022/06/14 08:59:21;;;;;;;16.45;6.88;;;;;;;;;;5074270;28;20029;-60
2022/06/14 09:01:53;;;;;;;14.27;6.63;;;;;;;;;;5072475;28;20466;-59
2022/06/14 09:04:34;;;;;;;12.02;6.45;;;;;;;;;;5068545;28;20020;-60
2022/06/14 09:07:32;;;;;;;13.27;6.88;;;;;;;;;;5073368;28;20039;-59
2022/06/14 09:10:00;;;;;;;14.38;7.43;;;;;;;;;;5073922;28;20020;-59
2022/06/14 09:13:02;;;;;;;13.77;6.90;;;;;;;;;;5076753;28;20032;-59
2022/06/14 09:15:58;;;;;;;11.73;6.70;;;;;;;;;;5070101;28;20028;-59
2022/06/14 09:18:39;;;;;;;11.02;6.80;;;;;;;;;;5067320;28;20077;-58
2022/06/14 09:21:13;;;;;;;13.73;7.05;;;;;;;;;;5068989;28;20024;-58
2022/06/14 09:24:08;;;;;;;10.60;5.97;;;;;;;;;;5072668;28;20063;-59
2022/06/14 09:26:52;;;;;;;13.90;7.63;;;;;;;;;;5071468;28;20031;-59
2022/06/14 09:29:39;;;;;;;13.77;6.28;;;;;;;;;;5070147;28;20086;-60
2022/06/14 09:32:29;;;;;;;12.38;6.03;;;;;;;;;;5058844;28;20104;-59
2022/06/14 09:35:09;;;;;;;11.98;6.00;;;;;;;;;;5063039;28;20035;-60
2022/06/14 09:37:47;;;;;;;11.90;5.70;;;;;;;;;;5072430;28;20404;-60
2022/06/14 09:40:30;;;;;;;12.63;5.35;;;;;;;;;;5067058;28;20104;-60
2022/06/14 09:43:17;;;;;;;12.98;5.43;;;;;;;;;;5066544;28;20078;-60
2022/06/14 09:45:58;;;;;;;10.82;5.28;;;;;;;;;;5072196;28;20051;-60
2022/06/14 09:48:43;;;;;;;11.25;5.70;;;;;;;;;;5073013;28;20020;-60
2022/06/14 09:51:30;;;;;;;10.85;5.47;;;;;;;;;;5070371;28;20043;-59
2022/06/14 09:54:17;;;;;;;7.80;4.72;;;;;;;;;;5072873;28;20032;-60
2022/06/14 09:57:02;;;;;;;13.27;5.65;;;;;;;;;;5071706;28;20389;-59
2022/06/14 09:59:49;;;;;;;9.75;5.22;;;;;;;;;;5065841;28;20036;-61
2022/06/14 10:02:56;;;;;;;13.00;6.03;;;;;;;;;;5069014;28;20424;-60
2022/06/14 10:05:40;;;;;;;9.48;5.78;;;;;;;;;;5067991;28;20112;-58
2022/06/14 10:08:30;;;;;;;14.73;6.10;;;;;;;;;;5071705;28;20522;-59
2022/06/14 10:11:11;;;;;;;9.48;5.40;;;;;;;;;;5072502;28;20479;-60
2022/06/14 10:13:51;;;;;;;11.27;5.97;;;;;;;;;;5074382;28;20027;-60
2022/06/14 10:16:24;;;;;;;12.48;6.78;;;;;;;;;;5069048;28;20059;-59
2022/06/14 10:19:08;;;;;;;11.70;5.82;;;;;;;;;;5073505;28;20020;-61
2022/06/14 10:21:49;;;;;;;15.07;6.65;;;;;;;;;;5073691;28;20061;-60
2022/06/14 10:24:18;;;;;;;11.52;6.20;;;;;;;;;;5068402;28;20024;-60
2022/06/14 10:29:43;;;;;;;11.32;6.28;;;;;;;;;;5057406;28;20051;-60
2022/06/14 10:32:20;;;;;;;10.40;6.07;;;;;;;;;;5060269;28;20025;-59
2022/06/14 10:34:48;;;;;;;16.60;7.30;;;;;;;;;;5063100;28;20107;-59
2022/06/14 10:37:47;;;;;;;15.13;5.65;;;;;;;;;;5064960;28;20024;-60
2022/06/14 10:40:25;;;;;;;11.90;6.07;;;;;;;;;;5062911;28;20053;-60
2022/06/14 10:42:56;;;;;;;13.90;6.10;;;;;;;;;;5071350;28;20024;-60
2022/06/14 10:45:37;;;;;;;10.68;6.55;;;;;;;;;;5071528;28;20052;-60
2022/06/14 10:48:27;;;;;;;7.88;5.60;;;;;;;;;;5068045;28;20672;-61
2022/06/14 10:51:29;;;;;;;9.30;6.20;;;;;;;;;;5064580;28;20052;-60
2022/06/14 10:54:20;;;;;;;10.20;5.80;;;;;;;;;;5067513;28;20039;-59
2022/06/14 10:57:00;;;;;;;11.43;5.88;;;;;;;;;;5070892;28;20050;-60
2022/06/14 10:59:37;;;;;;;12.18;5.75;;;;;;;;;;5071460;28;20024;-59
2022/06/14 11:02:18;;;;;;;11.63;5.68;;;;;;;;;;5072762;28;20028;-60
2022/06/14 11:04:55;;;;;;;11.50;5.90;;;;;;;;;;5072117;28;20034;-59
2022/06/14 11:07:43;;;;;;;11.55;5.53;;;;;;;;;;5068025;28;20400;-60
2022/06/14 11:10:29;;;;;;;7.85;5.53;;;;;;;;;;5063726;28;20217;-60
2022/06/14 11:13:08;;;;;;;8.95;5.68;;;;;;;;;;5070452;28;20411;-59
2022/06/14 11:15:49;;;;;;;;;;;;;;;;;;5069149;28;20021;-60
2022/06/14 11:18:43;;;;;;;11.98;6.18;;;;;;;;;;5068667;28;19969;-59
2022/06/14 11:21:14;;;;;;;12.90;6.07;;;;;;;;;;5067607;28;20017;-59
2022/06/14 11:23:58;;;;;;;13.50;6.00;;;;;;;;;;5071466;28;20047;-60
2022/06/14 11:26:45;;;;;;;12.32;5.88;;;;;;;;;;5066900;28;20044;-60
2022/06/14 11:29:13;;;;;;;11.23;5.15;;;;;;;;;;5059434;28;20062;-60
2022/06/14 11:31:43;;;;;;;9.73;5.22;;;;;;;;;;5062650;28;20102;-60
2022/06/14 11:34:34;;;;;;;10.63;5.97;;;;;;;;;;5063667;28;20032;-60
2022/06/14 11:37:37;;;;;;;7.97;5.63;;;;;;;;;;5060433;28;20048;-62
2022/06/14 11:40:25;;;;;;;13.23;5.50;;;;;;;;;;5058523;28;20020;-60
2022/06/14 11:43:06;;;;;;;10.32;5.03;;;;;;;;;;5070325;28;20056;-60
2022/06/14 11:45:37;;;;;;;12.93;5.18;;;;;;;;;;5072898;28;20028;-61
2022/06/14 11:48:19;;;;;;;12.73;5.50;;;;;;;;;;5071226;28;20043;-60
2022/06/14 11:50:56;;;;;;;9.93;5.13;;;;;;;;;;5069546;28;20063;-60
2022/06/14 11:53:43;;;;;;;8.25;5.18;;;;;;;;;;5074352;28;20039;-59
2022/06/14 11:56:22;;;;;;;9.23;5.10;;;;;;;;;;5070698;28;20029;-60
2022/06/14 11:59:37;;;;;;;10.50;5.03;;;;;;;;;;5071875;28;20024;-60
2022/06/14 12:02:14;;;;;;;9.52;4.80;;;;;;;;;;5066311;28;20078;-60
2022/06/14 12:04:40;;;;;;;13.77;5.43;;;;;;;;;;5068876;28;20024;-60
2022/06/14 12:07:32;;;;;;;12.50;5.50;;;;;;;;;;5074353;28;20082;-61
2022/06/14 12:10:35;;;;;;;10.57;5.25;;;;;;;;;;5069076;28;20028;-60
2022/06/14 12:13:15;;;;;;;10.32;5.22;;;;;;;;;;5073103;28;20105;-60
2022/06/14 12:15:46;;;;;;;8.85;5.43;;;;;;;;;;5071610;28;20024;-60
2022/06/14 12:18:16;;;;;;;8.48;4.95;;;;;;;;;;5071101;28;20033;-60
2022/06/14 12:20:56;;;;;;;8.43;4.68;;;;;;;;;;5071247;28;20056;-59
2022/06/14 12:23:30;;;;;;;9.85;4.72;;;;;;;;;;5074440;28;20076;-60
2022/06/14 12:26:37;;;;;;;10.32;4.85;;;;;;;;;;5066371;28;20028;-60
2022/06/14 12:29:09;;;;;;;7.30;5.00;;;;;;;;;;5056338;28;20066;-60
2022/06/14 12:32:12;;;;;;;6.47;4.40;;;;;;;;;;5062211;28;20024;-60
2022/06/14 12:34:46;;;;;;;9.40;4.80;;;;;;;;;;5064009;28;20406;-60
2022/06/14 12:37:23;;;;;;;10.70;5.47;;;;;;;;;;5063861;28;20051;-60
2022/06/14 12:40:15;;;;;;;6.90;4.43;;;;;;;;;;5064216;28;20032;-60
2022/06/14 12:43:02;;;;;;;7.00;4.25;;;;;;;;;;5065646;28;20042;-60
2022/06/14 12:45:37;;;;;;;9.73;4.93;;;;;;;;;;5069106;28;20024;-60
2022/06/14 12:48:29;;;;;;;11.20;4.90;;;;;;;;;;5070677;28;20020;-60
2022/06/14 12:51:08;;;;;;;12.32;4.60;;;;;;;;;;5069487;28;20039;-60
2022/06/14 12:53:39;;;;;;;8.30;5.13;;;;;;;;;;5068527;28;20017;-60
2022/06/14 12:56:21;;;;;;;9.07;4.28;;;;;;;;;;5073666;28;20099;-61
2022/06/14 12:59:16;;;;;;;8.13;4.80;;;;;;;;;;5073976;28;20336;-60
2022/06/14 13:01:53;;;;;;;9.32;4.82;;;;;;;;;;5073755;28;20036;-61
2022/06/14 13:04:46;;;;;;;13.40;5.25;;;;;;;;;;5068452;28;20035;-61
2022/06/14 13:07:27;;;;;;;9.07;4.70;;;;;;;;;;5055286;28;20514;-61
2022/06/14 13:09:58;;;;;;;9.02;4.53;;;;;;;;;;5073773;28;20039;-61
2022/06/14 13:12:32;;;;;;;7.18;3.83;;;;;;;;;;5076596;28;20524;-61
2022/06/14 13:15:09;;;;;;;11.65;4.65;;;;;;;;;;5072103;28;20074;-60
2022/06/14 13:18:10;;;;;;;11.63;4.95;;;;;;;;;;5072198;28;20032;-61
2022/06/14 13:20:56;;;;;;;9.02;4.80;;;;;;;;;;5074965;28;20051;-61
2022/06/14 13:23:39;;;;;;;10.05;4.50;;;;;;;;;;5070603;28;20128;-61
2022/06/14 13:26:26;;;;;;;8.02;4.15;;;;;;;;;;5058884;28;20027;-62
2022/06/14 13:29:06;;;;;;;8.45;4.22;;;;;;;;;;5066285;28;20391;-60
2022/06/14 13:31:38;;;;;;;8.25;3.53;;;;;;;;;;5065173;28;20108;-61
2022/06/14 13:34:41;;;;;;;7.50;3.78;;;;;;;;;;5063602;28;20048;-61
2022/06/14 13:37:21;;;;;;;8.48;3.63;;;;;;;;;;5061394;28;20090;-61
2022/06/14 13:39:55;;;;;;;6.13;3.53;;;;;;;;;;5073177;28;20031;-62
2022/06/14 13:42:34;;;;;;;7.00;3.70;;;;;;;;;;5072336;28;20506;-60
2022/06/14 13:45:35;;;;;;;6.00;3.50;;;;;;;;;;5068305;28;20099;-60
2022/06/14 13:48:09;;;;;;;7.32;3.90;;;;;;;;;;5043476;28;20191;-60
2022/06/14 13:50:41;;;;;;;8.50;3.83;;;;;;;;;;5070603;28;20615;-61
2022/06/14 13:53:07;;;;;;;10.23;4.05;;;;;;;;;;5074223;28;20035;-61
2022/06/14 13:55:32;;;;;;;6.50;3.88;;;;;;;;;;5074882;28;20028;-60
2022/06/14 13:58:39;;;;;;;13.25;3.63;;;;;;;;;;5073279;28;20103;-61
2022/06/14 14:01:22;;;;;;;6.00;3.80;;;;;;;;;;5061264;28;20515;-61
2022/06/14 14:04:18;;;;;;;9.88;4.03;;;;;;;;;;5072840;28;20032;-60
2022/06/14 14:07:05;;;;;;;8.85;4.65;;;;;;;;;;5071109;28;20373;-60
2022/06/14 14:09:44;;;;;;;7.70;3.88;;;;;;;;;;5072849;28;20026;-61
2022/06/14 14:12:30;;;;;;;7.63;3.75;;;;;;;;;;5068939;28;20056;-60
2022/06/14 14:15:30;;;;;;;6.80;3.58;;;;;;;;;;5074763;28;20036;-61
2022/06/14 14:18:12;;;;;;;8.70;3.97;;;;;;;;;;5066607;28;20028;-62
2022/06/14 14:21:04;;;;;;;10.77;3.85;;;;;;;;;;5071478;28;20021;-61
2022/06/14 14:23:41;;;;;;;10.20;4.05;;;;;;;;;;5064861;28;20040;-60
2022/06/14 14:26:11;;;;;;;10.38;3.90;;;;;;;;;;5059732;28;20419;-61
2022/06/14 14:28:39;;;;;;;9.45;3.90;;;;;;;;;;5064473;28;20523;-61
2022/06/14 14:31:44;;;;;;;5.43;3.60;;;;;;;;;;5064313;28;20353;-61
2022/06/14 14:34:29;;;;;;;7.20;3.63;;;;;;;;;;5052592;28;20025;-61
2022/06/14 14:37:10;;;;;;;6.20;3.75;;;;;;;;;;5057842;28;20578;-62
2022/06/14 14:39:45;;;;;;;5.18;3.50;;;;;;;;;;5071751;28;20028;-62
2022/06/14 14:42:13;;;;;;;9.45;3.60;;;;;;;;;;5071768;28;20056;-61
2022/06/14 14:44:52;;;;;;;7.72;3.88;;;;;;;;;;5073074;28;20027;-62
2022/06/14 14:47:21;;;;;;;6.03;3.78;;;;;;;;;;5071812;28;20051;-61
2022/06/14 14:50:05;;;;;;;6.82;3.20;;;;;;;;;;5071100;28;20024;-61
2022/06/14 14:52:38;;;;;;;5.18;3.60;;;;;;;;;;5068599;28;20194;-61
2022/06/14 14:55:29;;;;;;;6.97;3.47;;;;;;;;;;5071779;28;20044;-61
2022/06/14 14:58:00;;;;;;;6.80;3.15;;;;;;;;;;5064535;28;20025;-61
2022/06/14 15:06:47;;;;;;;6.55;3.38;;;;;;;;;;5066962;28;20027;-61
2022/06/14 15:09:24;;;;;;;5.53;3.30;;;;;;;;;;5068726;28;20557;-61
2022/06/14 15:11:55;;;;;;;6.70;3.20;;;;;;;;;;5071502;28;20534;-62
2022/06/14 15:14:25;;;;;;;9.77;3.33;;;;;;;;;;5075009;28;20088;-62
2022/06/14 15:19:54;;;;;;;6.63;3.30;;;;;;;;;;5074076;28;20500;-60
2022/06/14 15:22:29;;;;;;;6.43;3.30;;;;;;;;;;5065643;28;20028;-60
2022/06/14 15:24:59;;;;;;;7.38;4.75;;;;;;;;;;5060251;28;20035;-60
2022/06/14 15:27:41;;;;;;;7.68;3.78;;;;;;;;;;5062453;28;20370;-61
2022/06/14 15:30:08;;;;;;;7.13;3.33;;;;;;;;;;5064535;28;20486;-61
2022/06/14 15:32:34;;;;;;;4.95;2.92;;;;;;;;;;5062611;28;20024;-61
2022/06/14 15:35:22;;;;;;;4.53;2.97;;;;;;;;;;5060779;28;20029;-61
2022/06/14 15:38:19;;;;;;;7.90;3.17;;;;;;;;;;5070559;28;20020;-61
2022/06/14 15:40:45;;;;;;;7.57;3.15;;;;;;;;;;5069747;28;20125;-61
2022/06/14 15:43:25;;;;;;;6.47;3.08;;;;;;;;;;5072106;28;20024;-61
2022/06/14 15:45:54;;;;;;;3.92;2.80;;;;;;;;;;5062687;28;20117;-61
2022/06/14 15:48:21;;;;;;;4.80;3.55;;;;;;;;;;5070132;28;20029;-61
2022/06/14 15:50:53;;;;;;;10.82;3.33;;;;;;;;;;5069278;28;20021;-61
2022/06/14 15:53:23;;;;;;;5.47;3.00;;;;;;;;;;5074564;28;20059;-61
2022/06/14 15:55:53;;;;;;;7.28;3.00;;;;;;;;;;5070851;28;20020;-61
2022/06/14 15:58:26;;;;;;;4.35;3.42;;;;;;;;;;5064001;28;20078;-61
2022/06/14 16:01:01;;;;;;;3.92;2.90;;;;;;;;;;5068259;28;20332;-62
2022/06/14 16:03:33;;;;;;;5.85;2.83;;;;;;;;;;5074236;28;20028;-60